TimeHST,TemperatureF,Dew PointF,Humidity,Sea Level PressureIn,VisibilityMPH,Wind Direction,Wind SpeedMPH,Gust SpeedMPH,PrecipitationIn,Events,Conditions,WindDirDegrees,DateUTC
12:53 AM,71.1,64.9,81,30.04,10.0,Calm,Calm,-,N/A,,Scattered Clouds,0,2012-12-10 10:53:00
1:53 AM,71.1,64.9,81,30.02,10.0,Calm,Calm,-,N/A,,Clear,0,2012-12-10 11:53:00
2:53 AM,70.0,64.9,84,30.01,10.0,ENE,3.5,-,N/A,,Clear,70,2012-12-10 12:53:00
3:53 AM,70.0,64.0,81,30.00,10.0,Calm,Calm,-,N/A,,Clear,0,2012-12-10 13:53:00
4:53 AM,70.0,64.9,84,30.00,10.0,Calm,Calm,-,N/A,,Clear,0,2012-12-10 14:53:00
5:53 AM,70.0,64.9,84,30.00,10.0,ENE,5.8,-,N/A,,Clear,60,2012-12-10 15:53:00
6:53 AM,72.0,64.9,78,30.02,10.0,ENE,5.8,-,N/A,,Mostly Cloudy,70,2012-12-10 16:53:00
7:53 AM,75.0,64.9,71,30.04,10.0,ENE,4.6,-,N/A,,Mostly Cloudy,70,2012-12-10 17:53:00
8:53 AM,79.0,64.0,60,30.04,10.0,Variable,5.8,16.1,N/A,,Clear,0,2012-12-10 18:53:00
9:53 AM,80.1,63.0,56,30.05,10.0,East,9.2,21.9,N/A,,Clear,90,2012-12-10 19:53:00
10:53 AM,82.9,64.0,53,30.04,10.0,East,10.4,19.6,N/A,,Scattered Clouds,90,2012-12-10 20:53:00
11:53 AM,82.9,59.0,44,30.02,10.0,East,15.0,29.9,N/A,,Partly Cloudy,80,2012-12-10 21:53:00
12:53 PM,84.0,59.0,43,30.00,10.0,East,13.8,26.5,N/A,,Clear,80,2012-12-10 22:53:00
1:45 PM,82.4,62.6,51,29.96,10.0,East,12.7,21.9,N/A,,Partly Cloudy,80,2012-12-10 23:45:00
1:53 PM,82.0,61.0,49,29.99,10.0,East,13.8,23.0,N/A,,Clear,80,2012-12-10 23:53:00
2:53 PM,82.9,61.0,47,29.97,10.0,East,10.4,19.6,N/A,,Clear,80,2012-12-11 00:53:00
3:53 PM,80.1,61.0,52,29.99,10.0,East,11.5,21.9,N/A,,Clear,80,2012-12-11 01:53:00
4:53 PM,79.0,61.0,54,30.00,10.0,ENE,10.4,19.6,N/A,,Clear,70,2012-12-11 02:53:00
5:53 PM,75.9,60.1,58,30.03,10.0,East,10.4,18.4,N/A,,Partly Cloudy,80,2012-12-11 03:53:00
6:53 PM,75.0,61.0,62,30.04,10.0,ENE,8.1,17.3,N/A,,Partly Cloudy,70,2012-12-11 04:53:00
7:53 PM,75.0,60.1,60,30.05,10.0,ENE,8.1,17.3,N/A,,Clear,70,2012-12-11 05:53:00
8:53 PM,75.0,60.1,60,30.06,10.0,East,10.4,20.7,N/A,,Clear,80,2012-12-11 06:53:00
9:53 PM,75.0,61.0,62,30.08,10.0,East,10.4,-,N/A,,Clear,80,2012-12-11 07:53:00
10:53 PM,75.0,61.0,62,30.07,10.0,ENE,9.2,-,N/A,,Clear,70,2012-12-11 08:53:00
11:53 PM,73.9,61.0,64,30.06,10.0,ENE,8.1,18.4,N/A,,Clear,70,2012-12-11 09:53:00